createdAt,value
2023-05-01T00:02:21.619Z,51.38
2023-05-01T00:04:48.363Z,51.02
2023-05-01T00:07:15.021Z,51.07
2023-05-01T00:09:41.714Z,51.08
2023-05-01T00:12:08.259Z,51.03
2023-05-01T00:14:34.842Z,50.96
2023-05-01T00:17:01.659Z,51.09
2023-05-01T00:19:29.607Z,51.06
2023-05-01T00:21:56.242Z,51.07
2023-05-01T00:24:22.673Z,50.92
2023-05-01T00:26:49.330Z,51.04
2023-05-01T00:29:16.175Z,51.17
2023-05-01T00:31:42.895Z,51.11
2023-05-01T00:34:09.730Z,51.35
2023-05-01T00:36:37.658Z,50.99
2023-05-01T00:39:04.284Z,51.02
2023-05-01T00:41:30.847Z,50.83
2023-05-01T00:43:57.574Z,51.13
2023-05-01T00:46:24.666Z,51.20
2023-05-01T00:48:51.984Z,51.30
2023-05-01T00:51:19.880Z,51.26
2023-05-01T00:53:48.022Z,51.32
2023-05-01T00:56:15.570Z,51.33
2023-05-01T00:58:42.300Z,50.76
2023-05-01T01:01:08.972Z,50.84
2023-05-01T01:03:35.836Z,50.50
2023-05-01T01:06:09.340Z,50.21
2023-05-01T01:08:45.481Z,50.33
2023-05-01T01:11:23.983Z,50.26
2023-05-01T01:13:58.407Z,49.95
2023-05-01T01:16:36.689Z,50.00
2023-05-01T01:19:16.324Z,49.96
2023-05-01T01:21:45.889Z,49.76
2023-05-01T01:24:46.291Z,50.16
2023-05-01T01:27:42.263Z,50.21
2023-05-01T01:30:32.012Z,50.44
2023-05-01T01:33:35.971Z,50.01
2023-05-01T01:36:08.252Z,49.65
2023-05-01T01:38:42.327Z,49.78
2023-05-01T01:41:12.053Z,49.86
2023-05-01T01:43:43.417Z,49.51
2023-05-01T01:46:11.586Z,49.92
2023-05-01T01:48:42.436Z,49.61
2023-05-01T01:51:14.958Z,49.62
2023-05-01T01:53:46.393Z,49.41
2023-05-01T01:56:17.425Z,49.67
2023-05-01T01:58:47.053Z,49.28
2023-05-01T02:01:15.794Z,49.59
2023-05-01T02:03:45.894Z,49.79
2023-05-01T02:06:15.931Z,49.83
2023-05-01T02:08:46.915Z,49.68
2023-05-01T02:11:15.548Z,49.61
2023-05-01T02:13:43.722Z,50.10
2023-05-01T02:16:12.542Z,50.50
2023-05-01T02:18:40.802Z,50.95
2023-05-01T02:21:08.016Z,51.07
2023-05-01T02:23:36.967Z,51.00
2023-05-01T02:26:08.886Z,50.77
2023-05-01T02:28:38.658Z,50.84
2023-05-01T02:31:05.282Z,50.69
2023-05-01T02:33:32.088Z,50.60
2023-05-01T02:35:58.623Z,50.16
2023-05-01T02:38:28.238Z,50.30
2023-05-01T02:40:57.871Z,50.17
2023-05-01T02:43:26.632Z,49.94
2023-05-01T02:45:54.987Z,50.42
2023-05-01T02:48:25.469Z,50.19
2023-05-01T02:50:53.330Z,49.92
2023-05-01T02:53:20.743Z,50.08
2023-05-01T02:55:47.470Z,49.84
2023-05-01T02:58:18.899Z,49.17
2023-05-01T03:00:45.886Z,49.40
2023-05-01T03:03:12.762Z,49.57
2023-05-01T03:05:39.355Z,49.47
2023-05-01T03:08:06.474Z,49.07
2023-05-01T03:10:33.189Z,48.77
2023-05-01T03:12:59.762Z,49.18
2023-05-01T03:15:27.811Z,48.72
2023-05-01T03:17:54.314Z,48.54
2023-05-01T03:20:21.059Z,48.82
2023-05-01T03:22:47.620Z,48.85
2023-05-01T03:25:14.113Z,48.97
2023-05-01T03:27:40.654Z,48.71
2023-05-01T03:30:08.549Z,49.26
2023-05-01T03:32:36.575Z,48.83
2023-05-01T03:35:03.551Z,48.74
2023-05-01T03:37:30.119Z,49.17
2023-05-01T03:39:56.894Z,49.10
2023-05-01T03:42:23.538Z,48.93
2023-05-01T03:44:50.342Z,48.87
2023-05-01T03:47:16.859Z,48.97
2023-05-01T03:49:45.261Z,49.44
2023-05-01T03:52:11.947Z,49.19
2023-05-01T03:54:38.513Z,48.86
2023-05-01T03:57:05.119Z,48.85
2023-05-01T03:59:31.668Z,48.80
2023-05-01T04:01:58.274Z,48.79
2023-05-01T04:04:24.935Z,49.08
2023-05-01T04:06:52.957Z,49.04
2023-05-01T04:09:19.525Z,49.14
2023-05-01T04:11:46.063Z,49.31
2023-05-01T04:14:12.566Z,48.75
2023-05-01T04:16:39.321Z,48.96
2023-05-01T04:19:05.905Z,48.62
2023-05-01T04:21:32.470Z,48.58
2023-05-01T04:24:00.307Z,48.47
2023-05-01T04:26:26.817Z,48.26
2023-05-01T04:28:53.321Z,48.08
2023-05-01T04:31:19.897Z,47.87
2023-05-01T04:33:46.568Z,48.01
2023-05-01T04:36:13.152Z,48.32
2023-05-01T04:38:39.731Z,48.04
2023-05-01T04:41:07.511Z,47.53
2023-05-01T04:43:34.154Z,47.42
2023-05-01T04:46:00.755Z,47.30
2023-05-01T04:48:27.270Z,46.77
2023-05-01T04:50:53.833Z,46.79
2023-05-01T04:53:20.458Z,46.44
2023-05-01T04:55:47.324Z,46.07
2023-05-01T04:58:15.692Z,45.85
2023-05-01T05:00:42.232Z,45.60
2023-05-01T05:03:08.902Z,45.17
2023-05-01T05:05:35.805Z,45.44
2023-05-01T05:08:02.357Z,44.74
2023-05-01T05:10:28.921Z,44.56
2023-05-01T05:12:55.561Z,44.30
2023-05-01T05:15:23.674Z,44.14
2023-05-01T05:17:50.254Z,44.14
2023-05-01T05:20:17.049Z,43.26
2023-05-01T05:22:43.567Z,43.24
2023-05-01T05:25:10.130Z,42.90
2023-05-01T05:27:36.673Z,42.71
2023-05-01T05:30:04.195Z,42.21
2023-05-01T05:32:32.230Z,41.94
2023-05-01T05:34:59.001Z,41.88
2023-05-01T05:37:25.550Z,41.34
2023-05-01T05:39:52.292Z,41.17
2023-05-01T05:42:18.766Z,40.39
2023-05-01T05:44:45.721Z,40.17
2023-05-01T05:47:12.301Z,39.75
2023-05-01T05:49:40.260Z,39.24
2023-05-01T05:52:06.824Z,39.17
2023-05-01T05:54:33.680Z,38.66
2023-05-01T05:57:00.213Z,37.79
2023-05-01T05:59:26.771Z,37.83
2023-05-01T06:01:53.630Z,38.39
2023-05-01T06:04:20.153Z,37.88
2023-05-01T06:06:48.619Z,37.73
2023-05-01T06:09:15.216Z,38.04
2023-05-01T06:11:41.664Z,38.02
2023-05-01T06:14:08.234Z,37.57
2023-05-01T06:16:34.907Z,37.60
2023-05-01T06:19:01.672Z,37.32
2023-05-01T06:21:28.282Z,37.45
2023-05-01T06:23:56.187Z,37.19
2023-05-01T06:26:22.831Z,37.36
2023-05-01T06:28:49.416Z,37.31
2023-05-01T06:31:16.040Z,36.57
2023-05-01T06:33:42.705Z,36.75
2023-05-01T06:36:09.352Z,36.48
2023-05-01T06:38:35.872Z,36.59
2023-05-01T06:41:04.331Z,36.63
2023-05-01T06:43:30.879Z,36.26
2023-05-01T06:45:57.502Z,36.08
2023-05-01T06:48:24.027Z,36.14
2023-05-01T06:50:50.725Z,36.64
2023-05-01T06:53:17.289Z,36.16
2023-05-01T06:55:44.345Z,35.91
2023-05-01T06:58:22.725Z,36.35
2023-05-01T07:00:50.674Z,36.31
2023-05-01T07:03:17.437Z,36.06
2023-05-01T07:05:44.208Z,35.91
2023-05-01T07:08:10.757Z,35.43
2023-05-01T07:10:38.246Z,35.34
2023-05-01T07:13:06.413Z,36.06
2023-05-01T07:15:34.333Z,35.73
2023-05-01T07:18:00.930Z,35.61
2023-05-01T07:20:27.666Z,36.17
2023-05-01T07:22:54.230Z,35.52
2023-05-01T07:25:20.971Z,35.44
2023-05-01T07:27:47.723Z,35.34
2023-05-01T07:30:14.391Z,34.97
2023-05-01T07:32:42.364Z,34.61
2023-05-01T07:35:09.363Z,35.29
2023-05-01T07:37:36.058Z,35.10
2023-05-01T07:40:03.060Z,34.74
2023-05-01T07:42:29.643Z,34.97
2023-05-01T07:44:56.256Z,33.40
2023-05-01T07:47:22.845Z,33.24
2023-05-01T07:49:50.775Z,32.62
2023-05-01T07:52:17.387Z,31.96
2023-05-01T07:54:48.560Z,32.03
2023-05-01T07:57:15.161Z,31.63
2023-05-01T07:59:41.726Z,31.86
2023-05-01T08:02:08.523Z,32.37
2023-05-01T08:04:35.194Z,31.10
2023-05-01T08:07:03.205Z,30.81
2023-05-01T08:09:29.826Z,30.84
2023-05-01T08:11:56.401Z,30.85
2023-05-01T08:14:23.048Z,30.29
2023-05-01T08:16:49.659Z,29.96
2023-05-01T08:19:16.240Z,31.21
2023-05-01T08:21:42.825Z,30.10
2023-05-01T08:24:10.768Z,30.29
2023-05-01T08:26:37.527Z,30.04
2023-05-01T08:29:04.097Z,29.51
2023-05-01T08:31:30.770Z,29.61
2023-05-01T08:33:57.408Z,28.86
2023-05-01T08:36:23.988Z,27.67
2023-05-01T08:38:50.735Z,27.25
2023-05-01T08:41:21.311Z,26.38
2023-05-01T08:43:48.846Z,26.90
2023-05-01T08:46:25.352Z,27.28
2023-05-01T08:48:57.700Z,26.90
2023-05-01T08:51:25.853Z,26.89
2023-05-01T08:53:53.955Z,26.87
2023-05-01T08:56:22.358Z,26.39
2023-05-01T08:58:49.552Z,26.04
2023-05-01T09:01:16.779Z,26.30
2023-05-01T09:03:44.055Z,26.41
2023-05-01T09:06:11.243Z,27.51
2023-05-01T09:08:38.001Z,26.97
2023-05-01T09:11:04.848Z,27.31
2023-05-01T09:13:33.062Z,27.33
2023-05-01T09:16:00.264Z,27.71
2023-05-01T09:18:27.286Z,27.78
2023-05-01T09:20:54.308Z,27.56
2023-05-01T09:23:20.919Z,28.55
2023-05-01T09:25:49.609Z,29.56
2023-05-01T09:28:17.924Z,28.88
2023-05-01T09:30:45.780Z,28.90
2023-05-01T09:33:14.066Z,28.80
2023-05-01T09:35:51.381Z,28.67
2023-05-01T09:38:19.141Z,28.07
2023-05-01T09:40:45.930Z,27.86
2023-05-01T09:43:12.655Z,28.20
2023-05-01T09:45:39.251Z,27.62
2023-05-01T09:48:11.117Z,27.63
2023-05-01T09:50:38.538Z,28.06
2023-05-01T09:53:05.489Z,27.93
2023-05-01T09:55:32.609Z,27.41
2023-05-01T09:57:59.293Z,26.02
2023-05-01T10:00:26.741Z,26.88
2023-05-01T10:02:53.647Z,27.02
2023-05-01T10:05:21.805Z,27.07
2023-05-01T10:07:59.039Z,27.19
2023-05-01T10:10:26.184Z,26.77
2023-05-01T10:12:53.989Z,26.47
2023-05-01T10:15:26.282Z,26.49
2023-05-01T10:17:54.317Z,26.16
2023-05-01T10:20:22.778Z,25.86
2023-05-01T10:22:49.831Z,25.57
2023-05-01T10:25:17.741Z,25.78
2023-05-01T10:27:44.397Z,25.77
2023-05-01T10:30:11.567Z,25.98
2023-05-01T10:32:40.913Z,25.25
2023-05-01T10:35:11.474Z,25.63
2023-05-01T10:37:47.001Z,25.53
2023-05-01T10:40:45.140Z,25.59
2023-05-01T10:43:23.354Z,25.91
2023-05-01T10:45:50.007Z,25.51
2023-05-01T10:48:54.519Z,25.49
2023-05-01T10:51:23.259Z,25.20
2023-05-01T10:54:23.714Z,24.64
2023-05-01T10:56:50.951Z,24.70
2023-05-01T10:59:17.520Z,24.84
2023-05-01T11:01:44.938Z,25.38
2023-05-01T11:04:44.723Z,25.43
2023-05-01T11:07:16.133Z,26.04
2023-05-01T11:09:45.942Z,25.61
2023-05-01T11:12:14.272Z,26.52
2023-05-01T11:15:05.939Z,26.39
2023-05-01T11:17:45.626Z,26.29
2023-05-01T11:20:13.363Z,27.06
2023-05-01T11:22:44.432Z,27.66
2023-05-01T11:25:20.233Z,27.36
2023-05-01T11:27:47.988Z,27.91
2023-05-01T11:30:14.751Z,26.85
2023-05-01T11:32:43.776Z,26.26
2023-05-01T11:35:17.546Z,25.06
2023-05-01T11:37:44.817Z,25.96
2023-05-01T11:40:24.644Z,25.24
2023-05-01T11:42:52.533Z,24.17
2023-05-01T11:45:20.052Z,24.32
2023-05-01T11:47:48.092Z,23.59
2023-05-01T11:50:14.753Z,24.00
2023-05-01T11:52:43.085Z,23.93
2023-05-01T11:55:10.214Z,23.64
2023-05-01T11:57:47.346Z,23.16
2023-05-01T12:00:15.545Z,22.71
2023-05-01T12:02:59.024Z,23.51
2023-05-01T12:05:26.255Z,23.30
2023-05-01T12:08:06.412Z,22.74
2023-05-01T12:10:35.436Z,23.39
2023-05-01T12:13:04.705Z,24.49
2023-05-01T12:15:31.871Z,24.20
2023-05-01T12:17:58.746Z,24.04
2023-05-01T12:20:35.226Z,23.80
2023-05-01T12:23:03.212Z,23.69
2023-05-01T12:25:30.287Z,23.53
2023-05-01T12:27:57.179Z,23.60
2023-05-01T12:30:28.382Z,23.21
2023-05-01T12:32:55.544Z,22.75
2023-05-01T12:35:23.193Z,22.49
2023-05-01T12:37:49.754Z,22.79
2023-05-01T12:40:16.576Z,23.39
2023-05-01T12:42:43.148Z,23.07
2023-05-01T12:45:10.749Z,23.53
2023-05-01T12:47:39.509Z,24.46
2023-05-01T12:50:07.301Z,25.09
2023-05-01T12:52:33.996Z,24.72
2023-05-01T12:55:04.831Z,25.98
2023-05-01T12:57:31.828Z,26.23
2023-05-01T12:59:59.973Z,24.21
2023-05-01T13:02:30.695Z,24.67
2023-05-01T13:05:08.306Z,24.34
2023-05-01T13:07:35.727Z,24.87
2023-05-01T13:10:03.524Z,23.94
2023-05-01T13:12:30.428Z,24.25
2023-05-01T13:14:57.540Z,24.72
2023-05-01T13:17:25.097Z,24.55
2023-05-01T13:19:55.665Z,25.23
2023-05-01T13:22:31.389Z,24.80
2023-05-01T13:24:58.248Z,24.68
2023-05-01T13:27:25.444Z,25.97
2023-05-01T13:29:54.344Z,26.69
2023-05-01T13:32:20.914Z,26.68
2023-05-01T13:34:47.455Z,27.52
2023-05-01T13:37:13.953Z,27.51
2023-05-01T13:39:43.195Z,28.17
2023-05-01T13:42:11.998Z,28.48
2023-05-01T13:44:43.588Z,28.23
2023-05-01T13:47:15.126Z,28.25
2023-05-01T13:49:42.263Z,28.13
2023-05-01T13:52:11.677Z,28.44
2023-05-01T13:54:40.311Z,28.64
2023-05-01T13:57:10.828Z,29.10
2023-05-01T13:59:40.093Z,29.59
2023-05-01T14:02:18.454Z,29.34
2023-05-01T14:04:45.057Z,29.72
2023-05-01T14:07:12.758Z,29.45
2023-05-01T14:09:41.220Z,29.50
2023-05-01T14:12:09.276Z,30.27
2023-05-01T14:14:36.214Z,31.05
2023-05-01T14:17:02.827Z,30.83
2023-05-01T14:19:29.607Z,30.27
2023-05-01T14:21:56.152Z,29.49
2023-05-01T14:24:22.761Z,29.60
2023-05-01T14:26:49.272Z,29.08
2023-05-01T14:29:22.680Z,29.18
2023-05-01T14:31:49.398Z,29.43
2023-05-01T14:34:18.161Z,29.95
2023-05-01T14:36:44.759Z,30.17
2023-05-01T14:39:12.300Z,29.14
2023-05-01T14:41:42.660Z,30.11
2023-05-01T14:44:12.642Z,30.58
2023-05-01T14:46:44.356Z,30.06
2023-05-01T14:49:17.042Z,28.77
2023-05-01T14:51:43.654Z,28.42
2023-05-01T14:54:10.339Z,29.33
2023-05-01T14:56:37.058Z,30.87
2023-05-01T14:59:03.651Z,31.90
2023-05-01T15:01:30.447Z,31.99
2023-05-01T15:03:59.785Z,32.83
2023-05-01T15:06:27.845Z,33.35
2023-05-01T15:08:54.726Z,33.40
2023-05-01T15:11:21.302Z,33.09
2023-05-01T15:13:48.137Z,33.37
2023-05-01T15:16:14.905Z,32.99
2023-05-01T15:18:41.472Z,33.48
2023-05-01T15:21:09.380Z,33.78
2023-05-01T15:23:41.040Z,34.16
2023-05-01T15:26:07.607Z,34.61
2023-05-01T15:28:34.171Z,34.58
2023-05-01T15:31:00.780Z,35.31
2023-05-01T15:33:27.608Z,37.17
2023-05-01T15:35:54.289Z,36.93
2023-05-01T15:38:22.275Z,37.69
2023-05-01T15:40:48.982Z,37.89
2023-05-01T15:43:15.826Z,37.14
2023-05-01T15:45:42.530Z,36.84
2023-05-01T15:48:09.944Z,36.35
2023-05-01T15:50:36.601Z,37.20
2023-05-01T15:53:03.348Z,36.95
2023-05-01T15:55:31.257Z,37.68
2023-05-01T15:57:57.905Z,38.14
2023-05-01T16:00:24.577Z,37.68
2023-05-01T16:02:51.291Z,37.70
2023-05-01T16:05:20.118Z,37.07
2023-05-01T16:07:48.563Z,37.63
2023-05-01T16:10:15.307Z,37.82
2023-05-01T16:12:43.338Z,38.44
2023-05-01T16:15:11.600Z,38.04
2023-05-01T16:17:43.069Z,37.80
2023-05-01T16:20:11.062Z,39.03
2023-05-01T16:22:38.663Z,39.20
2023-05-01T16:25:06.024Z,39.12
2023-05-01T16:27:32.632Z,38.93
2023-05-01T16:30:01.209Z,39.37
2023-05-01T16:32:28.177Z,39.04
2023-05-01T16:34:54.805Z,38.76
2023-05-01T16:37:24.298Z,39.12
2023-05-01T16:39:50.905Z,39.67
2023-05-01T16:42:28.928Z,39.94
2023-05-01T16:44:56.221Z,39.69
2023-05-01T16:47:24.239Z,39.53
2023-05-01T16:49:50.860Z,40.27
2023-05-01T16:52:17.470Z,40.06
2023-05-01T16:54:44.094Z,39.95
2023-05-01T16:57:10.743Z,39.82
2023-05-01T16:59:37.605Z,39.57
2023-05-01T17:02:04.213Z,39.32
2023-05-01T17:04:32.353Z,39.01
2023-05-01T17:06:59.136Z,38.77
2023-05-01T17:09:25.849Z,39.23
2023-05-01T17:11:52.456Z,38.55
2023-05-01T17:14:19.143Z,38.42
2023-05-01T17:19:12.361Z,38.46
2023-05-01T17:21:40.318Z,38.96
2023-05-01T17:24:07.030Z,38.91
2023-05-01T17:26:33.584Z,38.68
2023-05-01T17:29:01.114Z,38.77
2023-05-01T17:31:29.426Z,38.68
2023-05-01T17:33:56.028Z,39.14
2023-05-01T17:36:22.813Z,39.67
2023-05-01T17:38:50.788Z,39.47
2023-05-01T17:41:17.394Z,39.71
2023-05-01T17:43:43.889Z,40.23
2023-05-01T17:46:10.698Z,40.38
2023-05-01T17:48:37.758Z,40.49
2023-05-01T17:51:04.320Z,40.86
2023-05-01T17:53:30.886Z,41.19
2023-05-01T17:55:59.434Z,41.07
2023-05-01T17:58:26.017Z,41.50
2023-05-01T18:00:52.588Z,41.72
2023-05-01T18:03:19.293Z,41.99
2023-05-01T18:05:45.891Z,41.88
2023-05-01T18:08:12.954Z,42.36
2023-05-01T18:10:39.543Z,42.88
2023-05-01T18:13:07.508Z,43.59
2023-05-01T18:15:34.239Z,43.92
2023-05-01T18:18:00.882Z,44.22
2023-05-01T18:20:28.066Z,44.63
2023-05-01T18:22:54.695Z,44.62
2023-05-01T18:25:21.332Z,44.66
2023-05-01T18:27:47.898Z,45.02
2023-05-01T18:30:15.890Z,44.93
2023-05-01T18:32:48.057Z,45.74
2023-05-01T18:35:15.962Z,46.04
2023-05-01T18:37:42.752Z,46.03
2023-05-01T18:40:10.232Z,46.58
2023-05-01T18:42:36.814Z,47.37
2023-05-01T18:45:03.753Z,47.34
2023-05-01T18:47:31.734Z,47.78
2023-05-01T18:49:58.561Z,48.32
2023-05-01T18:52:25.229Z,48.32
2023-05-01T18:54:51.868Z,48.03
2023-05-01T18:57:18.466Z,48.53
2023-05-01T18:59:45.245Z,49.19
2023-05-01T19:02:12.119Z,49.38
2023-05-01T19:04:56.145Z,49.35
2023-05-01T19:07:23.741Z,50.12
2023-05-01T19:09:50.363Z,50.19
2023-05-01T19:12:16.956Z,50.40
2023-05-01T19:14:43.910Z,51.30
2023-05-01T19:17:10.840Z,51.74
2023-05-01T19:19:37.426Z,52.23
2023-05-01T19:22:05.413Z,52.58
2023-05-01T19:24:32.410Z,53.27
2023-05-01T19:26:59.118Z,53.53
2023-05-01T19:29:25.854Z,54.21
2023-05-01T19:31:52.550Z,54.24
2023-05-01T19:34:20.292Z,54.85
2023-05-01T19:36:46.877Z,55.07
2023-05-01T19:39:14.980Z,55.11
2023-05-01T19:41:41.671Z,55.41
2023-05-01T19:44:08.254Z,55.04
2023-05-01T19:46:34.830Z,55.33
2023-05-01T19:49:01.449Z,55.48
2023-05-01T19:51:28.972Z,55.31
2023-05-01T19:53:56.176Z,55.56
2023-05-01T19:56:24.193Z,54.95
2023-05-01T19:58:54.121Z,55.71
2023-05-01T20:01:21.110Z,55.71
2023-05-01T20:03:47.867Z,56.15
2023-05-01T20:06:14.578Z,56.39
2023-05-01T20:08:41.808Z,57.13
2023-05-01T20:11:08.748Z,57.08
2023-05-01T20:13:36.710Z,57.62
2023-05-01T20:16:04.013Z,57.53
2023-05-01T20:18:30.812Z,57.96
2023-05-01T20:20:57.530Z,58.50
2023-05-01T20:23:24.125Z,58.46
2023-05-01T20:25:50.976Z,58.99
2023-05-01T20:28:18.049Z,59.07
2023-05-01T20:30:47.180Z,58.94
2023-05-01T20:33:14.391Z,59.63
2023-05-01T20:35:41.078Z,59.69
2023-05-01T20:38:07.769Z,60.17
2023-05-01T20:40:37.145Z,60.10
2023-05-01T20:43:03.713Z,60.59
2023-05-01T20:45:33.270Z,60.91
2023-05-01T20:48:01.425Z,60.71
2023-05-01T20:50:28.090Z,61.31
2023-05-01T20:52:54.871Z,61.07
2023-05-01T20:55:21.613Z,61.27
2023-05-01T20:57:48.316Z,61.53
2023-05-01T21:00:15.515Z,61.63
2023-05-01T21:02:42.664Z,61.61
2023-05-01T21:05:11.094Z,61.22
2023-05-01T21:07:38.709Z,61.21
2023-05-01T21:10:06.710Z,61.91
2023-05-01T21:12:33.348Z,62.32
2023-05-01T21:15:00.223Z,62.02
2023-05-01T21:17:26.892Z,62.04
2023-05-01T21:19:53.851Z,62.05
2023-05-01T21:22:23.008Z,62.58
2023-05-01T21:24:52.857Z,62.42
2023-05-01T21:27:19.420Z,62.65
2023-05-01T21:29:50.559Z,62.41
2023-05-01T21:32:17.117Z,62.51
2023-05-01T21:34:43.742Z,62.79
2023-05-01T21:37:10.547Z,63.14
2023-05-01T21:39:38.622Z,63.19
2023-05-01T21:42:05.284Z,63.43
2023-05-01T21:44:32.031Z,63.73
2023-05-01T21:46:58.650Z,64.61
2023-05-01T21:49:26.536Z,64.62
2023-05-01T21:51:53.869Z,64.78
2023-05-01T21:54:21.751Z,64.85
2023-05-01T21:56:49.840Z,64.99
2023-05-01T21:59:17.252Z,64.67
2023-05-01T22:01:43.882Z,65.30
2023-05-01T22:04:15.094Z,64.86
2023-05-01T22:06:41.819Z,65.28
2023-05-01T22:09:08.432Z,64.91
2023-05-01T22:11:35.200Z,65.08
2023-05-01T22:14:03.192Z,65.45
2023-05-01T22:16:29.830Z,65.23
2023-05-01T22:18:56.473Z,65.03
2023-05-01T22:21:23.054Z,65.14
2023-05-01T22:23:49.688Z,64.93
2023-05-01T22:26:16.260Z,65.00
2023-05-01T22:28:43.233Z,65.52
2023-05-01T22:31:11.138Z,65.97
2023-05-01T22:33:37.728Z,65.93
2023-05-01T22:36:07.323Z,66.11
2023-05-01T22:38:34.319Z,65.90
2023-05-01T22:41:00.893Z,65.78
2023-05-01T22:43:27.444Z,65.48
2023-05-01T22:45:54.031Z,65.76
2023-05-01T22:48:21.970Z,66.42
2023-05-01T22:50:48.693Z,65.95
2023-05-01T22:53:15.242Z,65.88
2023-05-01T22:55:41.856Z,65.47
2023-05-01T22:58:08.430Z,65.57
2023-05-01T23:00:35.004Z,65.51
2023-05-01T23:03:01.665Z,65.78
2023-05-01T23:05:29.988Z,65.81
2023-05-01T23:07:56.569Z,65.02
2023-05-01T23:10:26.355Z,65.00
2023-05-01T23:12:52.950Z,65.05
2023-05-01T23:15:25.122Z,65.16
2023-05-01T23:17:51.961Z,65.15
2023-05-01T23:20:21.080Z,64.46
2023-05-01T23:22:49.274Z,64.39
2023-05-01T23:25:19.642Z,64.30
2023-05-01T23:27:50.099Z,64.26
2023-05-01T23:30:20.082Z,64.17
2023-05-01T23:32:46.660Z,63.82
2023-05-01T23:35:14.775Z,64.10
2023-05-01T23:37:41.778Z,64.16
2023-05-01T23:40:10.496Z,64.45
2023-05-01T23:42:37.978Z,64.55
2023-05-01T23:45:05.551Z,64.78
2023-05-01T23:47:32.251Z,65.16
2023-05-01T23:49:59.236Z,65.29
2023-05-01T23:52:26.291Z,65.49
2023-05-01T23:54:52.867Z,65.66
2023-05-01T23:57:20.913Z,65.91
2023-05-01T23:59:47.533Z,65.36
